createdAt,value
2019-05-26T00:02:27.651Z,70.07
2019-05-26T00:04:56.554Z,70.08
2019-05-26T00:07:30.693Z,69.68
2019-05-26T00:09:54.359Z,69.25
2019-05-26T00:12:23.254Z,69.44
2019-05-26T00:14:52.137Z,69.74
2019-05-26T00:17:21.024Z,69.76
2019-05-26T00:19:49.903Z,69.90
2019-05-26T00:22:18.811Z,69.95
2019-05-26T00:24:47.719Z,69.99
2019-05-26T00:27:16.635Z,70.23
2019-05-26T00:29:45.541Z,70.17
2019-05-26T00:32:14.421Z,69.90
2019-05-26T00:34:43.313Z,70.31
2019-05-26T00:37:12.191Z,69.76
2019-05-26T00:39:41.100Z,69.61
2019-05-26T00:42:10.032Z,69.62
2019-05-26T00:44:38.912Z,69.40
2019-05-26T00:47:07.841Z,69.45
2019-05-26T00:49:36.759Z,69.24
2019-05-26T00:52:05.675Z,68.81
2019-05-26T00:54:34.565Z,69.02
2019-05-26T00:57:03.467Z,68.17
2019-05-26T00:59:32.389Z,69.20
2019-05-26T01:02:01.276Z,69.43
2019-05-26T01:04:30.202Z,69.42
2019-05-26T01:06:59.092Z,69.78
2019-05-26T01:09:28.020Z,69.68
2019-05-26T01:11:56.918Z,68.90
2019-05-26T01:14:25.812Z,69.56
2019-05-26T01:16:56.006Z,69.79
2019-05-26T01:19:23.622Z,69.93
2019-05-26T01:21:52.494Z,69.88
2019-05-26T01:24:21.385Z,70.06
2019-05-26T01:26:50.289Z,69.85
2019-05-26T01:29:19.166Z,69.80
2019-05-26T01:31:48.073Z,69.49
2019-05-26T01:34:16.975Z,69.43
2019-05-26T01:36:45.928Z,69.71
2019-05-26T01:39:14.831Z,69.77
2019-05-26T01:41:43.735Z,69.73
2019-05-26T01:44:12.639Z,69.95
2019-05-26T01:46:41.540Z,69.86
2019-05-26T01:49:10.454Z,69.98
2019-05-26T01:51:39.370Z,70.06
2019-05-26T01:54:08.317Z,70.04
2019-05-26T01:56:37.228Z,70.01
2019-05-26T01:59:06.152Z,70.21
2019-05-26T02:01:35.045Z,70.14
2019-05-26T02:04:03.947Z,70.06
2019-05-26T02:06:32.852Z,69.95
2019-05-26T02:09:02.345Z,69.93
2019-05-26T02:11:31.265Z,69.84
2019-05-26T02:14:00.166Z,69.55
2019-05-26T02:16:29.080Z,69.73
2019-05-26T02:18:57.979Z,69.71
2019-05-26T02:21:26.897Z,70.02
2019-05-26T02:23:55.780Z,69.96
2019-05-26T02:26:24.695Z,70.02
2019-05-26T02:28:53.594Z,70.31
2019-05-26T02:31:22.506Z,70.72
2019-05-26T02:33:51.409Z,70.95
2019-05-26T02:36:20.306Z,71.03
2019-05-26T02:39:01.106Z,71.14
2019-05-26T02:41:18.113Z,70.44
2019-05-26T02:43:47.002Z,69.34
2019-05-26T02:46:15.908Z,70.21
2019-05-26T02:48:44.791Z,69.88
2019-05-26T02:51:13.784Z,69.83
2019-05-26T02:53:42.696Z,69.10
2019-05-26T02:56:11.620Z,68.87
2019-05-26T02:58:40.505Z,69.13
2019-05-26T03:01:09.500Z,69.04
2019-05-26T03:03:38.377Z,67.59
2019-05-26T03:06:07.547Z,68.50
2019-05-26T03:08:36.446Z,67.06
2019-05-26T03:11:05.413Z,66.34
2019-05-26T03:13:35.476Z,66.20
2019-05-26T03:16:04.389Z,67.67
2019-05-26T03:18:33.543Z,67.71
2019-05-26T03:21:03.340Z,68.01
2019-05-26T03:23:32.294Z,68.25
2019-05-26T03:26:01.210Z,68.67
2019-05-26T03:28:30.191Z,68.66
2019-05-26T03:30:59.109Z,68.75
2019-05-26T03:33:27.976Z,68.67
2019-05-26T03:35:56.869Z,68.91
2019-05-26T03:38:25.794Z,68.88
2019-05-26T03:40:54.670Z,68.99
2019-05-26T03:43:23.571Z,68.99
2019-05-26T03:46:20.919Z,69.09
2019-05-26T03:48:50.236Z,69.07
2019-05-26T03:51:19.200Z,69.40
2019-05-26T03:53:48.055Z,69.36
2019-05-26T03:56:16.961Z,69.62
2019-05-26T03:58:45.879Z,70.59
2019-05-26T04:01:14.796Z,70.67
2019-05-26T04:03:43.700Z,70.82
2019-05-26T04:06:12.573Z,71.22
2019-05-26T04:08:41.522Z,70.46
2019-05-26T04:11:10.635Z,71.51
2019-05-26T04:13:39.549Z,70.84
2019-05-26T04:16:08.568Z,71.28
2019-05-26T04:18:37.420Z,71.68
2019-05-26T04:21:06.868Z,71.66
2019-05-26T04:23:35.750Z,72.78
2019-05-26T04:26:04.751Z,72.81
2019-05-26T04:28:33.652Z,73.15
2019-05-26T04:31:02.580Z,73.08
2019-05-26T04:33:31.475Z,73.37
2019-05-26T04:36:00.391Z,73.86
2019-05-26T04:38:29.272Z,75.06
2019-05-26T04:40:58.225Z,76.28
2019-05-26T04:43:27.115Z,76.49
2019-05-26T04:45:56.033Z,76.64
2019-05-26T04:48:24.980Z,77.24
2019-05-26T04:50:53.881Z,77.21
2019-05-26T04:53:22.803Z,77.42
2019-05-26T04:55:51.716Z,76.62
2019-05-26T04:58:20.592Z,77.73
2019-05-26T05:00:49.495Z,77.53
2019-05-26T05:03:18.394Z,77.11
2019-05-26T05:05:47.306Z,76.66
2019-05-26T05:08:16.201Z,74.84
2019-05-26T05:10:45.126Z,75.87
2019-05-26T05:13:14.020Z,75.90
2019-05-26T05:15:42.924Z,75.24
2019-05-26T05:18:11.957Z,74.94
2019-05-26T05:20:41.394Z,75.01
2019-05-26T05:23:10.431Z,74.76
2019-05-26T05:25:39.335Z,74.81
2019-05-26T05:28:08.279Z,74.83
2019-05-26T05:30:37.161Z,74.97
2019-05-26T05:33:06.108Z,74.97
2019-05-26T05:35:34.989Z,72.41
2019-05-26T05:38:03.907Z,73.67
2019-05-26T05:40:32.797Z,73.24
2019-05-26T05:43:01.721Z,73.26
2019-05-26T05:45:30.638Z,72.84
2019-05-26T05:47:59.569Z,72.39
2019-05-26T05:50:28.460Z,72.71
2019-05-26T05:52:57.377Z,72.28
2019-05-26T05:55:26.333Z,71.35
2019-05-26T05:57:55.194Z,71.56
2019-05-26T06:00:24.113Z,70.72
2019-05-26T06:02:53.079Z,69.85
2019-05-26T06:05:22.044Z,69.29
2019-05-26T06:07:50.948Z,69.15
2019-05-26T06:10:19.864Z,68.70
2019-05-26T06:12:48.768Z,68.47
2019-05-26T06:15:17.844Z,66.91
2019-05-26T06:17:46.672Z,66.88
2019-05-26T06:20:15.582Z,66.72
2019-05-26T06:22:44.466Z,67.26
2019-05-26T06:25:13.403Z,67.04
2019-05-26T06:27:42.293Z,66.64
2019-05-26T06:30:11.259Z,68.54
2019-05-26T06:32:40.166Z,68.30
2019-05-26T06:35:09.244Z,68.20
2019-05-26T06:37:38.130Z,68.09
2019-05-26T06:40:07.268Z,68.23
2019-05-26T06:42:36.165Z,67.82
2019-05-26T06:45:05.432Z,67.45
2019-05-26T06:47:34.342Z,67.45
2019-05-26T06:50:03.303Z,66.95
2019-05-26T06:52:32.200Z,67.41
2019-05-26T06:55:01.118Z,68.82
2019-05-26T06:57:30.038Z,68.11
2019-05-26T06:59:58.959Z,67.07
2019-05-26T07:02:27.875Z,67.33
2019-05-26T07:04:56.791Z,66.00
2019-05-26T07:07:25.686Z,64.91
2019-05-26T07:09:54.650Z,63.04
2019-05-26T07:12:23.550Z,62.15
2019-05-26T07:14:52.445Z,61.64
2019-05-26T07:17:21.390Z,59.78
2019-05-26T07:19:50.282Z,61.51
2019-05-26T07:22:19.201Z,62.87
2019-05-26T07:24:48.136Z,63.67
2019-05-26T07:27:17.031Z,63.37
2019-05-26T07:29:45.953Z,64.11
2019-05-26T07:32:14.858Z,64.26
2019-05-26T07:34:43.775Z,63.42
2019-05-26T07:37:12.687Z,62.94
2019-05-26T07:39:41.601Z,64.34
2019-05-26T07:42:11.317Z,64.89
2019-05-26T07:44:39.507Z,64.10
2019-05-26T07:47:08.474Z,65.81
2019-05-26T07:49:37.364Z,64.91
2019-05-26T07:52:06.354Z,64.42
2019-05-26T07:54:35.248Z,63.60
2019-05-26T07:57:04.162Z,61.37
2019-05-26T07:59:33.046Z,63.00
2019-05-26T08:02:02.003Z,63.04
2019-05-26T08:04:30.835Z,62.56
2019-05-26T08:06:59.778Z,60.79
2019-05-26T08:09:28.718Z,59.71
2019-05-26T08:11:57.607Z,61.24
2019-05-26T08:14:26.549Z,60.43
2019-05-26T08:16:55.508Z,58.78
2019-05-26T08:19:24.446Z,59.49
2019-05-26T08:21:54.656Z,57.68
2019-05-26T08:24:22.247Z,58.73
2019-05-26T08:26:51.171Z,59.31
2019-05-26T08:29:20.065Z,60.54
2019-05-26T08:31:48.978Z,60.18
2019-05-26T08:34:17.860Z,59.67
2019-05-26T08:36:46.772Z,59.10
2019-05-26T08:39:15.677Z,59.99
2019-05-26T08:41:44.557Z,59.45
2019-05-26T08:44:13.462Z,59.25
2019-05-26T08:46:42.340Z,60.25
2019-05-26T08:49:11.383Z,61.02
2019-05-26T08:51:40.297Z,60.51
2019-05-26T08:54:09.258Z,60.25
2019-05-26T08:56:38.107Z,59.08
2019-05-26T08:59:07.113Z,57.67
2019-05-26T09:01:35.994Z,55.73
2019-05-26T09:04:04.933Z,55.40
2019-05-26T09:06:33.815Z,54.09
2019-05-26T09:09:02.787Z,52.35
2019-05-26T09:11:31.677Z,51.97
2019-05-26T09:14:00.589Z,52.15
2019-05-26T09:16:29.477Z,53.05
2019-05-26T09:18:58.385Z,52.42
2019-05-26T09:21:27.320Z,53.05
2019-05-26T09:23:56.223Z,50.44
2019-05-26T09:26:25.157Z,52.30
2019-05-26T09:28:54.077Z,52.38
2019-05-26T09:31:22.973Z,52.85
2019-05-26T09:33:51.853Z,53.20
2019-05-26T09:36:20.762Z,52.90
2019-05-26T09:38:49.666Z,52.17
2019-05-26T09:41:18.584Z,51.86
2019-05-26T09:43:47.481Z,52.27
2019-05-26T09:46:16.376Z,51.76
2019-05-26T09:48:45.292Z,51.82
2019-05-26T09:51:14.210Z,50.87
2019-05-26T09:53:43.109Z,51.33
2019-05-26T09:56:12.007Z,51.83
2019-05-26T09:58:40.936Z,51.33
2019-05-26T10:01:09.922Z,51.21
2019-05-26T10:03:38.827Z,50.72
2019-05-26T10:06:07.933Z,50.25
2019-05-26T10:08:36.826Z,49.76
2019-05-26T10:11:05.893Z,49.57
2019-05-26T10:13:34.827Z,49.69
2019-05-26T10:16:03.796Z,49.87
2019-05-26T10:18:32.704Z,48.93
2019-05-26T10:21:01.633Z,46.96
2019-05-26T10:23:30.527Z,47.69
2019-05-26T10:25:59.406Z,47.99
2019-05-26T10:28:28.302Z,47.35
2019-05-26T10:30:57.216Z,47.65
2019-05-26T10:33:26.125Z,47.57
2019-05-26T10:35:55.019Z,47.01
2019-05-26T10:38:24.083Z,47.04
2019-05-26T10:40:52.967Z,47.33
2019-05-26T10:43:21.878Z,47.26
2019-05-26T10:45:50.782Z,48.33
2019-05-26T10:48:19.683Z,47.25
2019-05-26T10:50:48.586Z,47.35
2019-05-26T10:53:17.491Z,47.86
2019-05-26T10:55:46.417Z,48.55
2019-05-26T10:58:15.301Z,48.60
2019-05-26T11:00:44.217Z,48.67
2019-05-26T11:03:13.109Z,49.38
2019-05-26T11:05:42.009Z,50.10
2019-05-26T11:08:10.997Z,50.44
2019-05-26T11:10:39.829Z,50.40
2019-05-26T11:13:08.824Z,50.39
2019-05-26T11:15:37.743Z,50.56
2019-05-26T11:18:06.676Z,50.75
2019-05-26T11:20:35.575Z,51.68
2019-05-26T11:23:04.592Z,51.99
2019-05-26T11:25:33.508Z,51.99
2019-05-26T11:28:02.402Z,52.18
2019-05-26T11:30:31.328Z,52.30
2019-05-26T11:33:00.212Z,52.70
2019-05-26T11:35:29.116Z,52.32
2019-05-26T11:37:58.004Z,53.00
2019-05-26T11:40:26.922Z,52.90
2019-05-26T11:42:55.846Z,52.53
2019-05-26T11:45:24.739Z,50.56
2019-05-26T11:47:53.672Z,51.48
2019-05-26T11:50:22.565Z,51.64
2019-05-26T11:52:51.488Z,51.60
2019-05-26T11:55:23.456Z,51.36
2019-05-26T11:57:52.880Z,51.41
2019-05-26T12:00:22.077Z,51.34
2019-05-26T12:02:54.873Z,51.12
2019-05-26T12:05:27.965Z,51.09
2019-05-26T12:07:57.105Z,51.37
2019-05-26T12:10:26.578Z,51.78
2019-05-26T12:12:57.633Z,51.05
2019-05-26T12:15:26.883Z,50.98
2019-05-26T12:17:56.817Z,50.69
2019-05-26T12:20:26.280Z,50.33
2019-05-26T12:22:55.698Z,49.82
2019-05-26T12:25:28.017Z,49.64
2019-05-26T12:28:02.940Z,50.24
2019-05-26T12:30:29.198Z,49.73
2019-05-26T12:33:02.311Z,49.07
2019-05-26T12:35:47.356Z,49.59
2019-05-26T12:38:16.485Z,49.41
2019-05-26T12:40:48.320Z,49.77
2019-05-26T12:43:17.901Z,49.23
2019-05-26T12:45:47.417Z,49.22
2019-05-26T12:48:16.543Z,49.28
2019-05-26T12:50:50.238Z,48.68
2019-05-26T12:53:26.313Z,49.00
2019-05-26T12:55:55.533Z,48.14
2019-05-26T12:58:28.068Z,48.00
2019-05-26T13:00:57.259Z,47.57
2019-05-26T13:03:26.812Z,46.58
2019-05-26T13:05:56.248Z,47.61
2019-05-26T13:08:29.088Z,47.50
2019-05-26T13:10:58.319Z,47.75
2019-05-26T13:13:33.879Z,47.95
2019-05-26T13:16:03.010Z,47.71
2019-05-26T13:18:33.409Z,48.03
2019-05-26T13:21:05.815Z,47.00
2019-05-26T13:23:38.085Z,49.49
2019-05-26T13:26:07.361Z,49.52
2019-05-26T13:28:36.543Z,49.78
2019-05-26T13:31:06.527Z,50.51
2019-05-26T13:33:35.848Z,50.53
2019-05-26T13:36:05.626Z,51.05
2019-05-26T13:38:38.007Z,51.81
2019-05-26T13:41:07.552Z,52.02
2019-05-26T13:43:36.685Z,52.87
2019-05-26T13:46:14.376Z,51.58
2019-05-26T13:48:44.185Z,50.42
2019-05-26T13:51:13.361Z,51.18
2019-05-26T13:53:43.714Z,50.71
2019-05-26T13:56:15.741Z,50.37
2019-05-26T13:58:45.096Z,48.69
2019-05-26T14:01:14.421Z,48.21
2019-05-26T14:03:45.405Z,48.07
2019-05-26T14:06:18.994Z,47.11
2019-05-26T14:08:50.887Z,46.72
2019-05-26T14:11:20.313Z,46.47
2019-05-26T14:13:49.560Z,46.29
2019-05-26T14:16:19.198Z,45.74
2019-05-26T14:18:49.757Z,45.23
2019-05-26T14:21:23.240Z,44.95
2019-05-26T14:23:50.848Z,45.54
2019-05-26T14:26:22.735Z,45.71
2019-05-26T14:28:51.776Z,45.25
2019-05-26T14:31:20.649Z,45.38
2019-05-26T14:33:49.556Z,45.68
2019-05-26T14:36:18.431Z,45.98
2019-05-26T14:38:47.328Z,46.14
2019-05-26T14:41:16.199Z,45.87
2019-05-26T14:43:45.103Z,44.67
2019-05-26T14:46:13.984Z,44.52
2019-05-26T14:48:42.901Z,44.13
2019-05-26T14:51:11.802Z,44.90
2019-05-26T14:53:40.711Z,45.87
2019-05-26T14:56:09.650Z,45.90
2019-05-26T14:58:38.555Z,45.73
2019-05-26T15:01:07.536Z,46.21
2019-05-26T15:03:36.441Z,46.81
2019-05-26T15:06:06.344Z,46.47
2019-05-26T15:08:34.339Z,46.31
2019-05-26T15:11:03.319Z,46.83
2019-05-26T15:13:32.221Z,46.39
2019-05-26T15:16:10.031Z,47.13
2019-05-26T15:18:30.017Z,46.97
2019-05-26T15:20:58.897Z,47.40
2019-05-26T15:23:27.797Z,47.59
2019-05-26T15:25:56.670Z,47.77
2019-05-26T15:28:25.596Z,49.02
2019-05-26T15:30:54.489Z,49.25
2019-05-26T15:33:23.391Z,49.42
2019-05-26T15:35:52.274Z,49.86
2019-05-26T15:38:21.184Z,49.89
2019-05-26T15:40:50.089Z,50.48
2019-05-26T15:43:19.017Z,49.04
2019-05-26T15:45:47.896Z,49.75
2019-05-26T15:48:16.792Z,50.09
2019-05-26T15:50:45.733Z,50.65
2019-05-26T15:53:14.590Z,50.76
2019-05-26T15:55:43.950Z,50.86
2019-05-26T15:58:12.862Z,50.87
2019-05-26T16:00:41.756Z,51.02
2019-05-26T16:03:10.694Z,51.69
2019-05-26T16:05:39.609Z,51.08
2019-05-26T16:08:08.661Z,51.64
2019-05-26T16:10:37.587Z,51.89
2019-05-26T16:13:06.649Z,51.78
2019-05-26T16:15:35.569Z,51.75
2019-05-26T16:18:04.588Z,52.06
2019-05-26T16:20:33.528Z,51.93
2019-05-26T16:23:02.410Z,51.88
2019-05-26T16:25:31.309Z,51.81
2019-05-26T16:28:00.193Z,51.73
2019-05-26T16:30:29.094Z,52.05
2019-05-26T16:32:58.041Z,51.81
2019-05-26T16:35:26.905Z,51.56
2019-05-26T16:37:55.804Z,51.64
2019-05-26T16:40:24.729Z,52.70
2019-05-26T16:42:53.615Z,51.09
2019-05-26T16:45:22.597Z,51.69
2019-05-26T16:47:51.436Z,52.06
2019-05-26T16:50:20.332Z,52.61
2019-05-26T16:52:49.216Z,52.42
2019-05-26T16:55:18.097Z,51.88
2019-05-26T16:57:47.006Z,52.14
2019-05-26T17:00:15.895Z,52.26
2019-05-26T17:02:44.798Z,52.72
2019-05-26T17:05:13.683Z,53.23
2019-05-26T17:07:42.588Z,53.32
2019-05-26T17:10:11.480Z,53.66
2019-05-26T17:12:40.404Z,54.25
2019-05-26T17:15:09.479Z,53.53
2019-05-26T17:17:38.380Z,53.50
2019-05-26T17:20:07.388Z,52.99
2019-05-26T17:22:36.287Z,53.11
2019-05-26T17:25:05.485Z,52.84
2019-05-26T17:27:34.386Z,52.83
2019-05-26T17:30:03.325Z,53.50
2019-05-26T17:32:32.232Z,53.92
2019-05-26T17:35:01.156Z,53.34
2019-05-26T17:37:32.865Z,53.51
2019-05-26T17:40:05.533Z,54.58
2019-05-26T17:42:30.674Z,54.73
2019-05-26T17:44:59.550Z,54.34
2019-05-26T17:47:30.747Z,54.58
2019-05-26T17:49:57.363Z,54.81
2019-05-26T17:52:26.260Z,55.16
2019-05-26T17:54:55.165Z,55.57
2019-05-26T17:57:24.053Z,56.30
2019-05-26T17:59:52.948Z,55.99
2019-05-26T18:02:21.888Z,55.58
2019-05-26T18:04:50.807Z,54.84
2019-05-26T18:07:19.721Z,54.50
2019-05-26T18:09:48.618Z,53.83
2019-05-26T18:12:17.531Z,55.16
2019-05-26T18:14:46.439Z,55.21
2019-05-26T18:17:15.333Z,55.17
2019-05-26T18:19:44.226Z,55.00
2019-05-26T18:22:13.141Z,55.47
2019-05-26T18:24:53.324Z,54.45
2019-05-26T18:27:10.955Z,55.05
2019-05-26T18:29:39.873Z,55.33
2019-05-26T18:32:09.022Z,55.41
2019-05-26T18:34:37.768Z,55.56
2019-05-26T18:37:06.773Z,55.92
2019-05-26T18:39:35.662Z,55.32
2019-05-26T18:42:04.745Z,55.78
2019-05-26T18:44:33.605Z,55.95
2019-05-26T18:47:02.510Z,56.33
2019-05-26T18:49:31.368Z,56.26
2019-05-26T18:52:00.276Z,56.17
2019-05-26T18:54:29.159Z,56.65
2019-05-26T18:56:58.053Z,56.70
2019-05-26T18:59:26.958Z,56.73
2019-05-26T19:01:55.861Z,56.86
2019-05-26T19:04:24.723Z,57.55
2019-05-26T19:06:53.666Z,57.73
2019-05-26T19:09:22.514Z,57.65
2019-05-26T19:11:51.422Z,57.79
2019-05-26T19:14:20.304Z,57.44
2019-05-26T19:16:49.231Z,57.93
2019-05-26T19:19:18.125Z,58.05
2019-05-26T19:21:47.035Z,57.80
2019-05-26T19:24:15.916Z,58.04
2019-05-26T19:26:44.837Z,57.32
2019-05-26T19:29:13.708Z,57.47
2019-05-26T19:31:42.639Z,57.50
2019-05-26T19:34:11.521Z,57.11
2019-05-26T19:36:40.427Z,57.28
2019-05-26T19:39:09.581Z,57.22
2019-05-26T19:41:39.474Z,57.29
2019-05-26T19:44:07.417Z,57.59
2019-05-26T19:46:36.334Z,57.15
2019-05-26T19:49:05.278Z,57.43
2019-05-26T19:51:34.191Z,56.62
2019-05-26T19:54:03.075Z,57.36
2019-05-26T19:56:31.984Z,57.79
2019-05-26T19:59:00.881Z,57.57
2019-05-26T20:01:29.796Z,58.22
2019-05-26T20:03:58.687Z,58.14
2019-05-26T20:06:27.604Z,58.02
2019-05-26T20:08:56.489Z,57.97
2019-05-26T20:11:25.445Z,58.86
2019-05-26T20:13:54.315Z,58.69
2019-05-26T20:16:23.217Z,58.22
2019-05-26T20:18:52.158Z,58.14
2019-05-26T20:21:21.039Z,57.31
2019-05-26T20:23:49.968Z,57.45
2019-05-26T20:26:18.847Z,57.30
2019-05-26T20:28:47.750Z,57.47
2019-05-26T20:31:16.628Z,57.10
2019-05-26T20:33:45.531Z,57.44
2019-05-26T20:36:14.417Z,56.60
2019-05-26T20:38:43.316Z,59.29
2019-05-26T20:41:12.253Z,60.38
2019-05-26T20:43:41.173Z,60.83
2019-05-26T20:46:10.069Z,61.82
2019-05-26T20:48:38.942Z,62.38
2019-05-26T20:51:07.871Z,62.17
2019-05-26T20:53:39.956Z,62.84
2019-05-26T20:56:05.779Z,61.94
2019-05-26T20:58:34.699Z,64.30
2019-05-26T21:01:03.617Z,64.69
2019-05-26T21:03:32.509Z,64.41
2019-05-26T21:06:01.424Z,65.29
2019-05-26T21:08:30.322Z,66.03
2019-05-26T21:10:59.220Z,65.81
2019-05-26T21:13:28.113Z,66.19
2019-05-26T21:15:57.026Z,66.69
2019-05-26T21:18:25.908Z,67.37
2019-05-26T21:20:54.820Z,67.49
2019-05-26T21:23:23.706Z,67.20
2019-05-26T21:25:52.617Z,68.12
2019-05-26T21:28:21.514Z,68.49
2019-05-26T21:30:50.411Z,69.10
2019-05-26T21:33:19.289Z,70.30
2019-05-26T21:35:48.197Z,71.36
2019-05-26T21:38:17.096Z,72.54
2019-05-26T21:40:46.011Z,73.16
2019-05-26T21:43:14.902Z,74.17
2019-05-26T21:45:43.811Z,74.68
2019-05-26T21:48:12.700Z,75.41
2019-05-26T21:50:41.586Z,76.74
2019-05-26T21:53:10.466Z,78.10
2019-05-26T21:55:39.390Z,78.59
2019-05-26T21:58:08.323Z,80.06
2019-05-26T22:00:42.012Z,81.60
2019-05-26T22:03:10.841Z,82.15
2019-05-26T22:05:39.745Z,83.04
2019-05-26T22:08:08.698Z,84.02
2019-05-26T22:10:37.608Z,84.68
2019-05-26T22:13:06.574Z,83.84
2019-05-26T22:15:35.479Z,83.83
2019-05-26T22:18:04.394Z,84.08
2019-05-26T22:20:33.300Z,84.15
2019-05-26T22:23:02.237Z,84.62
2019-05-26T22:25:31.105Z,83.71
2019-05-26T22:28:00.016Z,84.54
2019-05-26T22:30:28.956Z,84.78
2019-05-26T22:32:58.018Z,84.82
2019-05-26T22:35:26.911Z,85.32
2019-05-26T22:37:55.856Z,85.44
2019-05-26T22:40:24.760Z,86.12
2019-05-26T22:42:53.665Z,85.87
2019-05-26T22:45:22.591Z,86.46
2019-05-26T22:47:51.486Z,85.71
2019-05-26T22:50:20.397Z,85.58
2019-05-26T22:52:49.327Z,86.36
2019-05-26T22:55:18.214Z,85.91
2019-05-26T22:57:47.140Z,86.66
2019-05-26T23:00:16.095Z,86.69
2019-05-26T23:02:45.047Z,87.12
2019-05-26T23:05:13.976Z,87.22
2019-05-26T23:07:42.881Z,87.21
2019-05-26T23:10:11.824Z,87.35
2019-05-26T23:12:40.716Z,86.98
2019-05-26T23:15:09.650Z,86.84
2019-05-26T23:17:38.568Z,87.89
2019-05-26T23:20:07.542Z,87.98
2019-05-26T23:22:36.444Z,87.58
2019-05-26T23:25:05.618Z,87.62
2019-05-26T23:27:34.523Z,87.18
2019-05-26T23:30:03.491Z,86.96
2019-05-26T23:32:32.414Z,87.77
2019-05-26T23:35:01.325Z,87.68
2019-05-26T23:37:30.216Z,87.37
2019-05-26T23:39:59.136Z,87.19
2019-05-26T23:42:28.028Z,86.86
2019-05-26T23:44:56.925Z,86.17
2019-05-26T23:47:25.834Z,85.06
2019-05-26T23:49:54.751Z,84.65
2019-05-26T23:52:23.655Z,84.44
2019-05-26T23:54:52.537Z,84.27
2019-05-26T23:57:21.453Z,83.52
2019-05-26T23:59:50.365Z,83.30
